7°C Temp
3°C Dewpoint
76% Humidity
Temperature
2 KM/H
1 MPH
1 KTS
Calm
Due North

Wind Speed
Clear
Conditions
Pressure 1027.92 (hPa) - 30.35 (in)
Visibility 6.2 (mi) - 10.0 (km)

Current Conditions
LECO
Location 25(km)
Metar :LECO 222000Z VRB01KT CAVOK 07/03 Q1028 NOSIG
Sat 22nd January 21:00 pm

Airport
  Metar Aviation API Data Provided by https://www.checkwx.com/ PHP scripts by weather34.com ©2022